Time;durP1;ratioP1;P1;durP2;ratioP2;P2;SDS_P1;SDS_P2;PMS_P1;PMS_P2;Temp;Humidity;BMP_temperature;BMP_pressure;BME280_temperature;BME280_humidity;BME280_pressure;Samples;Min_cycle;Max_cycle;Signal;HPM_P1;HPM_P2
2023/12/01 00:01:22;;;;;;;9.87;7.00;;;;;;;;;;5128417;28;20892;-79
2023/12/01 00:03:50;;;;;;;16.60;9.20;;;;;;;;;;5125244;28;20452;-79
2023/12/01 00:06:17;;;;;;;14.60;7.70;;;;;;;;;;5125904;28;20459;-79
2023/12/01 00:08:57;;;;;;;15.00;9.40;;;;;;;;;;5125714;28;20515;-79
2023/12/01 00:11:28;;;;;;;11.70;7.67;;;;;;;;;;5128940;28;20444;-80
2023/12/01 00:13:56;;;;;;;13.33;7.70;;;;;;;;;;5126718;28;20524;-79
2023/12/01 00:16:24;;;;;;;12.43;7.63;;;;;;;;;;5129060;28;20455;-79
2023/12/01 00:18:52;;;;;;;10.57;7.47;;;;;;;;;;5125818;28;20498;-80
2023/12/01 00:21:20;;;;;;;14.30;8.13;;;;;;;;;;5121651;28;20472;-80
2023/12/01 00:23:48;;;;;;;11.60;7.40;;;;;;;;;;5119260;28;20436;-80
2023/12/01 00:26:15;;;;;;;11.43;8.20;;;;;;;;;;5124905;28;20462;-79
2023/12/01 00:28:45;;;;;;;15.37;9.47;;;;;;;;;;5126268;28;20486;-79
2023/12/01 00:31:12;;;;;;;11.67;7.87;;;;;;;;;;5126766;28;20456;-79
2023/12/01 00:33:40;;;;;;;9.97;6.67;;;;;;;;;;5126754;28;20462;-79
2023/12/01 00:36:08;;;;;;;15.20;9.47;;;;;;;;;;5124363;28;20812;-79
2023/12/01 00:38:36;;;;;;;14.00;8.40;;;;;;;;;;5122928;28;20439;-80
2023/12/01 00:41:04;;;;;;;12.07;6.90;;;;;;;;;;5126376;28;20475;-79
2023/12/01 00:43:31;;;;;;;12.43;6.87;;;;;;;;;;5122417;28;20464;-80
2023/12/01 00:46:00;;;;;;;13.27;7.60;;;;;;;;;;5126344;28;20476;-79
2023/12/01 00:48:29;;;;;;;14.87;7.93;;;;;;;;;;5124054;28;20492;-79
2023/12/01 00:50:57;;;;;;;15.73;8.10;;;;;;;;;;5124354;28;20439;-79
2023/12/01 00:53:24;;;;;;;12.13;7.50;;;;;;;;;;5124107;28;20468;-79
2023/12/01 00:55:51;;;;;;;14.20;8.47;;;;;;;;;;5123277;28;20488;-77
2023/12/01 00:58:19;;;;;;;13.97;7.40;;;;;;;;;;5123966;28;20455;-79
2023/12/01 01:00:46;;;;;;;11.60;7.07;;;;;;;;;;5120941;28;20450;-79
2023/12/01 01:03:21;;;;;;;10.43;5.97;;;;;;;;;;5124541;28;20451;-80
2023/12/01 01:05:49;;;;;;;12.53;7.97;;;;;;;;;;5121715;28;20840;-78
2023/12/01 01:08:16;;;;;;;15.40;8.83;;;;;;;;;;5123695;28;20721;-79
2023/12/01 01:10:44;;;;;;;11.43;7.77;;;;;;;;;;5121836;28;20799;-79
2023/12/01 01:13:11;;;;;;;12.07;7.20;;;;;;;;;;5124319;28;20459;-78
2023/12/01 01:15:39;;;;;;;11.23;7.43;;;;;;;;;;5125055;28;20514;-78
2023/12/01 01:18:09;;;;;;;12.27;7.10;;;;;;;;;;5125147;28;20447;-79
2023/12/01 01:20:38;;;;;;;11.57;6.93;;;;;;;;;;5126469;28;20507;-79
2023/12/01 01:23:05;;;;;;;11.90;7.03;;;;;;;;;;5123290;28;20459;-78
2023/12/01 01:25:33;;;;;;;10.53;6.77;;;;;;;;;;5123234;28;20482;-79
2023/12/01 01:28:00;;;;;;;10.00;5.40;;;;;;;;;;5120970;28;20484;-80
2023/12/01 01:30:27;;;;;;;9.97;5.70;;;;;;;;;;5120766;28;20689;-78
2023/12/01 01:32:55;;;;;;;15.30;7.20;;;;;;;;;;5123482;28;20531;-80
2023/12/01 01:35:22;;;;;;;12.47;6.63;;;;;;;;;;5123324;28;20864;-79
2023/12/01 01:37:51;;;;;;;9.90;5.47;;;;;;;;;;5122818;28;20455;-79
2023/12/01 01:40:19;;;;;;;11.07;6.50;;;;;;;;;;5125588;28;20524;-80
2023/12/01 01:42:46;;;;;;;11.70;6.03;;;;;;;;;;5126333;28;20523;-79
2023/12/01 01:45:16;;;;;;;10.67;6.20;;;;;;;;;;5126110;28;20467;-79
2023/12/01 01:47:44;;;;;;;12.87;6.67;;;;;;;;;;5125139;28;20443;-79
2023/12/01 01:50:14;;;;;;;10.27;5.80;;;;;;;;;;5126006;28;20878;-80
2023/12/01 01:52:42;;;;;;;10.90;6.77;;;;;;;;;;5123018;28;20555;-79
2023/12/01 01:55:12;;;;;;;7.47;5.70;;;;;;;;;;5124582;28;20790;-79
2023/12/01 01:57:41;;;;;;;9.50;5.50;;;;;;;;;;5123405;28;20882;-78
2023/12/01 02:00:10;;;;;;;10.30;5.53;;;;;;;;;;5125082;28;20732;-79
2023/12/01 02:02:37;;;;;;;10.87;6.93;;;;;;;;;;5123871;28;20443;-79
2023/12/01 02:05:14;;;;;;;10.57;6.00;;;;;;;;;;5123247;28;20871;-79
2023/12/01 02:07:43;;;;;;;8.37;5.17;;;;;;;;;;5124184;28;20462;-78
2023/12/01 02:10:24;;;;;;;10.20;6.03;;;;;;;;;;5128424;28;20729;-79
2023/12/01 02:13:01;;;;;;;10.13;5.93;;;;;;;;;;5128595;28;20469;-78
2023/12/01 02:15:32;;;;;;;12.33;6.43;;;;;;;;;;5126355;28;20467;-77
2023/12/01 02:17:59;;;;;;;12.70;6.80;;;;;;;;;;5119963;28;20449;-79
2023/12/01 02:20:26;;;;;;;9.70;6.43;;;;;;;;;;5110353;28;20451;-79
2023/12/01 02:22:55;;;;;;;10.20;6.93;;;;;;;;;;5125062;28;20462;-79
2023/12/01 02:25:23;;;;;;;12.30;5.60;;;;;;;;;;5122792;28;20968;-80
2023/12/01 02:27:50;;;;;;;10.57;7.10;;;;;;;;;;5121514;28;20863;-78
2023/12/01 02:30:24;;;;;;;13.10;6.53;;;;;;;;;;5114188;28;20459;-79
2023/12/01 02:32:52;;;;;;;11.43;7.00;;;;;;;;;;5115861;28;20521;-80
2023/12/01 02:35:20;;;;;;;10.50;6.50;;;;;;;;;;5122248;28;20452;-79
2023/12/01 02:37:47;;;;;;;12.50;6.57;;;;;;;;;;5121521;28;20444;-80
2023/12/01 02:40:18;;;;;;;12.23;7.33;;;;;;;;;;5121923;28;20487;-79
2023/12/01 02:42:50;;;;;;;13.37;6.47;;;;;;;;;;5120832;28;20491;-80
2023/12/01 02:45:18;;;;;;;15.53;7.17;;;;;;;;;;5121854;28;20503;-79
2023/12/01 02:47:47;;;;;;;10.37;6.13;;;;;;;;;;5121902;28;20452;-79
2023/12/01 02:50:18;;;;;;;11.80;6.70;;;;;;;;;;5105348;28;20537;-79
2023/12/01 02:52:46;;;;;;;9.50;5.67;;;;;;;;;;5123410;28;20459;-78
2023/12/01 02:55:14;;;;;;;12.97;7.70;;;;;;;;;;5115037;28;20610;-78
2023/12/01 02:57:43;;;;;;;13.90;6.67;;;;;;;;;;5114208;28;20498;-79
2023/12/01 03:00:19;;;;;;;11.83;7.43;;;;;;;;;;5122449;28;20712;-78
2023/12/01 03:02:46;;;;;;;14.13;7.77;;;;;;;;;;5122086;28;20826;-77
2023/12/01 03:05:14;;;;;;;10.70;6.53;;;;;;;;;;5121447;28;20547;-78
2023/12/01 03:07:42;;;;;;;13.03;6.60;;;;;;;;;;5120495;28;20451;-77
2023/12/01 03:10:08;;;;;;;11.97;6.97;;;;;;;;;;5122030;28;20484;-80
2023/12/01 03:12:36;;;;;;;12.43;7.27;;;;;;;;;;5123258;28;20508;-79
2023/12/01 03:15:05;;;;;;;9.83;5.73;;;;;;;;;;5120244;28;20780;-79
2023/12/01 03:17:33;;;;;;;11.60;6.67;;;;;;;;;;5122956;28;20752;-79
2023/12/01 03:20:01;;;;;;;9.13;5.97;;;;;;;;;;5122604;28;20457;-79
2023/12/01 03:22:29;;;;;;;10.40;5.47;;;;;;;;;;5120792;28;20456;-79
2023/12/01 03:24:57;;;;;;;10.17;6.70;;;;;;;;;;5122721;28;20520;-79
2023/12/01 03:27:25;;;;;;;12.00;6.90;;;;;;;;;;5124975;28;20458;-79
2023/12/01 03:29:53;;;;;;;12.77;7.33;;;;;;;;;;5127023;28;20494;-80
2023/12/01 03:32:22;;;;;;;14.50;7.30;;;;;;;;;;5126110;28;20474;-80
2023/12/01 03:34:49;;;;;;;12.33;7.23;;;;;;;;;;5125649;28;20444;-80
2023/12/01 03:37:16;;;;;;;13.00;7.83;;;;;;;;;;5125701;28;20469;-79
2023/12/01 03:39:44;;;;;;;10.97;6.63;;;;;;;;;;5128165;28;20957;-79
2023/12/01 03:42:11;;;;;;;11.50;6.93;;;;;;;;;;5125468;28;20462;-78
2023/12/01 03:44:39;;;;;;;12.90;7.60;;;;;;;;;;5123318;28;20948;-79
2023/12/01 03:47:08;;;;;;;13.50;6.97;;;;;;;;;;5125271;28;20464;-79
2023/12/01 03:49:38;;;;;;;15.67;8.70;;;;;;;;;;5124985;28;20582;-80
2023/12/01 03:52:08;;;;;;;15.17;7.63;;;;;;;;;;5126646;28;20836;-79
2023/12/01 03:54:37;;;;;;;12.00;6.33;;;;;;;;;;5124757;28;20853;-78
2023/12/01 03:57:04;;;;;;;11.80;7.20;;;;;;;;;;5124134;28;20451;-79
2023/12/01 03:59:32;;;;;;;12.73;8.40;;;;;;;;;;5124694;28;20435;-78
2023/12/01 04:01:59;;;;;;;15.45;7.68;;;;;;;;;;5124518;28;20490;-79
2023/12/01 04:04:27;;;;;;;13.37;8.10;;;;;;;;;;5125028;28;20202;-78
2023/12/01 04:06:56;;;;;;;10.60;7.67;;;;;;;;;;5125199;28;20470;-78
2023/12/01 04:09:23;;;;;;;14.17;8.07;;;;;;;;;;5111369;28;20969;-78
2023/12/01 04:11:54;;;;;;;12.17;6.37;;;;;;;;;;5126457;28;20463;-78
2023/12/01 04:14:21;;;;;;;13.00;8.23;;;;;;;;;;5122948;28;20490;-78
2023/12/01 04:16:49;;;;;;;15.80;8.17;;;;;;;;;;5124541;28;20643;-79
2023/12/01 04:19:16;;;;;;;13.27;8.30;;;;;;;;;;5123120;28;20526;-78
2023/12/01 04:21:44;;;;;;;11.03;6.27;;;;;;;;;;5122390;28;20209;-79
2023/12/01 04:24:12;;;;;;;12.53;7.43;;;;;;;;;;5122843;28;20466;-79
2023/12/01 04:26:40;;;;;;;17.23;8.87;;;;;;;;;;5121346;28;20612;-79
2023/12/01 04:29:07;;;;;;;14.30;8.23;;;;;;;;;;5123943;28;20506;-78
2023/12/01 04:31:35;;;;;;;11.67;7.07;;;;;;;;;;5125115;28;20450;-79
2023/12/01 04:34:02;;;;;;;15.00;8.20;;;;;;;;;;5120778;28;20482;-79
2023/12/01 04:36:30;;;;;;;12.83;7.83;;;;;;;;;;5119080;28;20491;-79
2023/12/01 04:38:57;;;;;;;17.13;9.40;;;;;;;;;;5117681;28;20840;-79
2023/12/01 04:41:26;;;;;;;17.07;9.80;;;;;;;;;;5121537;28;20462;-78
2023/12/01 04:43:53;;;;;;;16.40;8.60;;;;;;;;;;5118996;28;20472;-79
2023/12/01 04:46:21;;;;;;;16.57;8.97;;;;;;;;;;5122357;28;20491;-79
2023/12/01 04:48:48;;;;;;;16.70;9.60;;;;;;;;;;5120465;28;20450;-79
2023/12/01 04:51:17;;;;;;;16.83;8.80;;;;;;;;;;5127245;28;20456;-79
2023/12/01 04:53:45;;;;;;;14.33;8.97;;;;;;;;;;5125433;28;20460;-78
2023/12/01 04:56:21;;;;;;;17.87;9.47;;;;;;;;;;5144306;22;20501;-92
2023/12/01 04:59:11;;;;;;;18.00;9.77;;;;;;;;;;5133279;28;20465;-92
2023/12/01 05:04:26;;;;;;;17.90;9.73;;;;;;;;;;5133704;28;20449;-93
2023/12/01 05:06:57;;;;;;;19.02;10.15;;;;;;;;;;5132741;28;20455;-93
2023/12/01 05:09:27;;;;;;;17.98;9.65;;;;;;;;;;5133169;28;20201;-94
2023/12/01 05:12:05;;;;;;;17.80;9.87;;;;;;;;;;5134055;28;20193;-94
2023/12/01 05:14:42;;;;;;;13.83;8.93;;;;;;;;;;5133681;28;20455;-94
2023/12/01 05:17:15;;;;;;;18.07;9.97;;;;;;;;;;5131584;28;20483;-92
2023/12/01 05:19:56;;;;;;;19.10;10.70;;;;;;;;;;5131866;28;20459;-93
2023/12/01 05:25:13;;;;;;;17.97;9.73;;;;;;;;;;5131613;28;20486;-94
2023/12/01 05:28:04;;;;;;;17.13;9.10;;;;;;;;;;5132509;28;20478;-93
2023/12/01 05:30:38;;;;;;;15.70;8.60;;;;;;;;;;5132181;28;20539;-94
2023/12/01 05:33:21;;;;;;;21.33;11.10;;;;;;;;;;5133885;28;20474;-95
2023/12/01 05:50:33;;;;;;;15.87;8.73;;;;;;;;;;5129740;28;20483;-92
2023/12/01 05:53:11;;;;;;;18.65;10.15;;;;;;;;;;5131452;28;20464;-94
2023/12/01 05:55:57;;;;;;;16.17;8.47;;;;;;;;;;5132146;28;20185;-93
2023/12/01 05:58:28;;;;;;;14.83;8.90;;;;;;;;;;5134071;28;20459;-93
2023/12/01 06:12:55;;;;;;;18.43;10.63;;;;;;;;;;5125453;28;20664;-93
2023/12/01 06:15:37;;;;;;;19.77;9.23;;;;;;;;;;5130850;28;20451;-93
2023/12/01 06:18:08;;;;;;;15.23;8.33;;;;;;;;;;5131462;28;20792;-92
2023/12/01 06:20:48;;;;;;;19.80;12.23;;;;;;;;;;5129808;28;20426;-93
2023/12/01 06:29:37;;;;;;;15.50;9.90;;;;;;;;;;5128179;28;20530;-92
2023/12/01 06:32:21;;;;;;;19.87;10.30;;;;;;;;;;5131184;28;20446;-95
2023/12/01 06:40:45;;;;;;;19.17;10.10;;;;;;;;;;5128715;28;20427;-94
2023/12/01 06:43:18;;;;;;;18.37;10.77;;;;;;;;;;5130313;28;20458;-93
2023/12/01 06:48:48;;;;;;;17.77;11.40;;;;;;;;;;5122409;28;20446;-92
2023/12/01 06:51:16;;;;;;;19.93;11.60;;;;;;;;;;5125696;28;20488;-92
2023/12/01 06:53:59;;;;;;;17.57;10.13;;;;;;;;;;5131104;28;20438;-93
2023/12/01 06:56:34;;;;;;;20.03;12.73;;;;;;;;;;5125135;28;20466;-94
2023/12/01 07:05:01;;;;;;;;;;;;;;;;;;;;;
2023/12/01 07:07:47;;;;;;;26.10;13.20;;;;;;;;;;5088478;28;20726;-77
2023/12/01 07:10:28;;;;;;;27.03;13.57;;;;;;;;;;5083811;28;20806;-75
2023/12/01 07:12:57;;;;;;;22.40;11.83;;;;;;;;;;5069846;28;20495;-77
2023/12/01 07:18:33;;;;;;;24.90;14.17;;;;;;;;;;5065302;28;20494;-76
2023/12/01 07:21:05;;;;;;;21.57;11.20;;;;;;;;;;5067693;28;20858;-76
2023/12/01 07:23:35;;;;;;;22.30;12.40;;;;;;;;;;5068509;28;20561;-77
2023/12/01 07:26:53;;;;;;;;;;;;;;;;;;;;;
2023/12/01 07:29:28;;;;;;;27.83;13.65;;;;;;;;;;5069970;28;20524;-77
2023/12/01 07:32:27;;;;;;;22.87;12.07;;;;;;;;;;5101980;28;20220;-76
2023/12/01 07:35:14;;;;;;;25.43;12.80;;;;;;;;;;5112931;28;20452;-77
2023/12/01 07:37:47;;;;;;;28.73;15.60;;;;;;;;;;5109106;28;20538;-76
2023/12/01 07:45:42;;;;;;;27.80;12.33;;;;;;;;;;4832586;26;20498;-80
2023/12/01 07:48:10;;;;;;;18.90;12.50;;;;;;;;;;5033718;28;20666;-79
2023/12/01 07:50:39;;;;;;;23.27;13.57;;;;;;;;;;5038258;28;20497;-79
2023/12/01 07:53:16;;;;;;;26.30;13.93;;;;;;;;;;5031728;28;20803;-78
2023/12/01 07:55:44;;;;;;;22.47;12.67;;;;;;;;;;5037383;28;20463;-79
2023/12/01 07:58:12;;;;;;;28.67;15.27;;;;;;;;;;5039121;28;20462;-79
2023/12/01 08:00:40;;;;;;;19.10;11.73;;;;;;;;;;5033070;28;20459;-79
2023/12/01 08:03:09;;;;;;;22.60;13.43;;;;;;;;;;5017274;28;20790;-79
2023/12/01 08:05:39;;;;;;;26.50;14.10;;;;;;;;;;5019996;28;20479;-78
2023/12/01 08:08:08;;;;;;;23.57;13.17;;;;;;;;;;5016712;28;20456;-78
2023/12/01 08:10:39;;;;;;;21.50;12.20;;;;;;;;;;5016345;28;20498;-79
2023/12/01 08:13:08;;;;;;;25.03;13.47;;;;;;;;;;5013979;28;20463;-78
2023/12/01 08:15:35;;;;;;;20.30;12.37;;;;;;;;;;5027120;28;20469;-78
2023/12/01 08:18:04;;;;;;;30.20;14.50;;;;;;;;;;5033286;28;20499;-78
2023/12/01 08:20:31;;;;;;;24.53;13.10;;;;;;;;;;5039304;28;20451;-79
2023/12/01 08:22:59;;;;;;;29.50;13.50;;;;;;;;;;5036807;28;20468;-79
2023/12/01 08:25:28;;;;;;;25.03;12.17;;;;;;;;;;5039486;28;21200;-78
2023/12/01 08:27:56;;;;;;;21.57;14.23;;;;;;;;;;5040609;28;20655;-80
2023/12/01 08:30:25;;;;;;;31.63;13.77;;;;;;;;;;5041199;28;20550;-79
2023/12/01 08:32:53;;;;;;;31.00;13.83;;;;;;;;;;5044249;28;20493;-78
2023/12/01 08:35:21;;;;;;;22.43;11.40;;;;;;;;;;5041454;28;20471;-77
2023/12/01 08:37:51;;;;;;;34.47;12.57;;;;;;;;;;5050662;28;20470;-79
2023/12/01 08:40:21;;;;;;;25.80;14.80;;;;;;;;;;5043451;28;20525;-79
2023/12/01 08:42:52;;;;;;;22.70;11.90;;;;;;;;;;5047382;28;20471;-80
2023/12/01 08:45:20;;;;;;;25.47;14.77;;;;;;;;;;5046067;28;20230;-79
2023/12/01 08:47:48;;;;;;;23.83;13.00;;;;;;;;;;5039442;28;20448;-79
2023/12/01 08:50:19;;;;;;;22.97;13.03;;;;;;;;;;5037547;28;20491;-78
2023/12/01 08:52:48;;;;;;;24.27;14.27;;;;;;;;;;5033938;28;20464;-79
2023/12/01 08:55:16;;;;;;;27.07;13.00;;;;;;;;;;5037972;28;20488;-79
2023/12/01 08:57:43;;;;;;;19.90;13.03;;;;;;;;;;5032302;28;20562;-80
2023/12/01 09:00:20;;;;;;;24.33;12.27;;;;;;;;;;5022799;28;20475;-78
2023/12/01 09:02:49;;;;;;;28.80;13.53;;;;;;;;;;5032240;28;20486;-79
2023/12/01 09:05:18;;;;;;;22.23;12.70;;;;;;;;;;5032542;28;20493;-79
2023/12/01 09:07:50;;;;;;;31.00;14.47;;;;;;;;;;5031160;28;21077;-80
2023/12/01 09:10:22;;;;;;;32.07;15.63;;;;;;;;;;5030268;28;20491;-81
2023/12/01 09:12:51;;;;;;;26.47;14.10;;;;;;;;;;5024891;28;20460;-78
2023/12/01 09:15:21;;;;;;;25.53;15.67;;;;;;;;;;5024597;28;20528;-79
2023/12/01 09:17:49;;;;;;;24.33;13.40;;;;;;;;;;5034242;28;20467;-79
2023/12/01 09:20:23;;;;;;;25.97;13.60;;;;;;;;;;5038548;28;20471;-77
2023/12/01 09:22:55;;;;;;;25.80;12.93;;;;;;;;;;5026939;28;20463;-78
2023/12/01 09:25:23;;;;;;;32.43;15.97;;;;;;;;;;5024343;28;20464;-80
2023/12/01 09:27:51;;;;;;;28.70;14.63;;;;;;;;;;5029992;28;20527;-79
2023/12/01 09:30:23;;;;;;;29.70;14.80;;;;;;;;;;5031361;28;20532;-81
2023/12/01 09:32:52;;;;;;;26.20;15.33;;;;;;;;;;5032007;28;20491;-79
2023/12/01 09:35:23;;;;;;;30.80;15.40;;;;;;;;;;5018682;28;20764;-77
2023/12/01 09:37:51;;;;;;;35.33;15.63;;;;;;;;;;5021219;28;20463;-79
2023/12/01 09:40:25;;;;;;;34.63;16.73;;;;;;;;;;5020271;28;20466;-78
2023/12/01 09:42:53;;;;;;;25.30;16.40;;;;;;;;;;5027117;28;20456;-79
2023/12/01 09:45:26;;;;;;;32.13;17.33;;;;;;;;;;5027608;28;20480;-79
2023/12/01 09:47:59;;;;;;;26.97;14.83;;;;;;;;;;5023297;28;20465;-80
2023/12/01 09:50:35;;;;;;;33.50;16.90;;;;;;;;;;5016758;28;20490;-77
2023/12/01 09:53:15;;;;;;;30.10;15.93;;;;;;;;;;5026008;28;20459;-78
2023/12/01 09:55:50;;;;;;;28.23;17.00;;;;;;;;;;5024724;28;20451;-79
2023/12/01 09:58:19;;;;;;;31.80;15.80;;;;;;;;;;5030697;28;20886;-78
2023/12/01 10:00:49;;;;;;;31.17;15.57;;;;;;;;;;5026391;28;20453;-78
2023/12/01 10:03:17;;;;;;;30.37;15.80;;;;;;;;;;5034664;28;20819;-79
2023/12/01 10:05:45;;;;;;;19.10;11.07;;;;;;;;;;5024373;28;20460;-80
2023/12/01 10:08:14;;;;;;;36.67;16.00;;;;;;;;;;5027470;28;20656;-77
2023/12/01 10:10:45;;;;;;;32.77;15.07;;;;;;;;;;5023256;28;20549;-78
2023/12/01 10:13:13;;;;;;;20.40;11.07;;;;;;;;;;5032665;28;20919;-80
2023/12/01 10:15:44;;;;;;;33.33;16.37;;;;;;;;;;5031948;28;20455;-78
2023/12/01 10:18:23;;;;;;;26.20;14.13;;;;;;;;;;5033782;28;20474;-78
2023/12/01 10:20:59;;;;;;;28.10;15.20;;;;;;;;;;5035514;28;20459;-80
2023/12/01 10:23:28;;;;;;;24.17;13.10;;;;;;;;;;5039725;28;20891;-80
2023/12/01 10:25:57;;;;;;;26.90;14.10;;;;;;;;;;5036163;28;20524;-79
2023/12/01 10:28:29;;;;;;;26.03;13.40;;;;;;;;;;5019594;28;20475;-79
2023/12/01 10:30:57;;;;;;;26.07;14.20;;;;;;;;;;5035471;28;20467;-78
2023/12/01 10:33:28;;;;;;;29.43;14.60;;;;;;;;;;5040585;28;20857;-77
2023/12/01 10:36:02;;;;;;;26.90;15.90;;;;;;;;;;5038880;28;20444;-79
2023/12/01 10:38:35;;;;;;;28.70;15.07;;;;;;;;;;5029285;28;20464;-78
2023/12/01 10:41:05;;;;;;;24.30;13.30;;;;;;;;;;5027873;28;20468;-80
2023/12/01 10:43:34;;;;;;;29.60;15.43;;;;;;;;;;5040189;28;20452;-78
2023/12/01 10:46:08;;;;;;;26.73;14.53;;;;;;;;;;5001440;28;20470;-78
2023/12/01 10:48:37;;;;;;;22.70;12.63;;;;;;;;;;4994862;28;20456;-78
2023/12/01 10:51:19;;;;;;;26.23;14.50;;;;;;;;;;5001180;28;21012;-79
2023/12/01 10:53:48;;;;;;;23.20;14.77;;;;;;;;;;5005645;28;20801;-78
2023/12/01 10:56:18;;;;;;;23.67;13.80;;;;;;;;;;5005137;28;20458;-77
2023/12/01 10:58:47;;;;;;;33.07;14.10;;;;;;;;;;4984161;28;20501;-79
2023/12/01 11:01:15;;;;;;;27.63;14.33;;;;;;;;;;4988318;28;20465;-79
2023/12/01 11:06:40;;;;;;;21.10;11.93;;;;;;;;;;3383225;26;20551;-75
2023/12/01 11:09:14;;;;;;;25.47;14.00;;;;;;;;;;5082983;28;20785;-74
2023/12/01 11:12:04;;;;;;;31.80;14.27;;;;;;;;;;5087322;28;20612;-74
2023/12/01 11:14:33;;;;;;;24.37;13.30;;;;;;;;;;5080178;28;20458;-74
2023/12/01 11:20:13;;;;;;;28.77;13.37;;;;;;;;;;5070693;28;20442;-74
2023/12/01 11:22:45;;;;;;;25.30;13.33;;;;;;;;;;5081188;28;20491;-75
2023/12/01 11:25:43;;;;;;;21.77;12.90;;;;;;;;;;5088497;28;20461;-72
2023/12/01 11:34:08;;;;;;;30.13;16.73;;;;;;;;;;5082446;28;20547;-73
2023/12/01 11:39:34;;;;;;;28.00;14.73;;;;;;;;;;5088673;28;20453;-74
2023/12/01 11:42:19;;;;;;;29.03;14.97;;;;;;;;;;5089265;22;20904;-78
2023/12/01 11:44:54;;;;;;;27.10;13.50;;;;;;;;;;5073400;28;20523;-80
2023/12/01 11:47:22;;;;;;;23.50;11.70;;;;;;;;;;5079968;28;20437;-78
2023/12/01 11:49:50;;;;;;;30.10;14.93;;;;;;;;;;5081802;28;20450;-79
2023/12/01 11:52:19;;;;;;;26.53;13.57;;;;;;;;;;5080534;28;20481;-79
2023/12/01 11:54:49;;;;;;;25.13;13.13;;;;;;;;;;5077621;28;20465;-78
2023/12/01 11:57:21;;;;;;;23.90;12.20;;;;;;;;;;5071037;28;20484;-78
2023/12/01 11:59:50;;;;;;;20.80;11.80;;;;;;;;;;5068328;28;20443;-79
2023/12/01 12:02:31;;;;;;;24.50;13.47;;;;;;;;;;5093540;28;20542;-78
2023/12/01 12:05:00;;;;;;;26.47;15.00;;;;;;;;;;5095596;28;20450;-77
2023/12/01 12:07:28;;;;;;;26.73;13.67;;;;;;;;;;5101026;28;21126;-80
2023/12/01 12:09:58;;;;;;;20.90;12.80;;;;;;;;;;5083154;28;20462;-77
2023/12/01 12:12:27;;;;;;;27.57;13.97;;;;;;;;;;5072586;28;21183;-78
2023/12/01 12:14:56;;;;;;;28.33;13.63;;;;;;;;;;5077120;28;20444;-79
2023/12/01 12:17:24;;;;;;;29.27;13.23;;;;;;;;;;5075825;28;20438;-79
2023/12/01 12:19:52;;;;;;;22.37;12.10;;;;;;;;;;5073164;28;20457;-78
2023/12/01 12:22:20;;;;;;;22.67;11.80;;;;;;;;;;5074935;28;20529;-79
2023/12/01 12:24:48;;;;;;;22.40;12.03;;;;;;;;;;5071438;28;20864;-80
2023/12/01 12:27:17;;;;;;;22.77;13.90;;;;;;;;;;5070199;28;20771;-80
2023/12/01 12:29:46;;;;;;;19.77;12.43;;;;;;;;;;5072199;28;20735;-79
2023/12/01 12:32:14;;;;;;;20.07;10.47;;;;;;;;;;5074032;28;20482;-77
2023/12/01 12:34:42;;;;;;;24.63;10.17;;;;;;;;;;5076138;28;20687;-78
2023/12/01 12:37:12;;;;;;;27.50;12.47;;;;;;;;;;5064575;28;20509;-79
2023/12/01 12:39:40;;;;;;;21.30;10.83;;;;;;;;;;5074301;28;20469;-78
2023/12/01 12:42:11;;;;;;;23.20;11.17;;;;;;;;;;5073164;28;20501;-79
2023/12/01 12:44:44;;;;;;;25.30;13.80;;;;;;;;;;5073428;28;20477;-78
2023/12/01 12:47:12;;;;;;;26.97;13.40;;;;;;;;;;5055700;28;20455;-79
2023/12/01 12:49:43;;;;;;;26.57;13.50;;;;;;;;;;5055494;28;20446;-78
2023/12/01 12:52:11;;;;;;;25.07;13.23;;;;;;;;;;5065283;28;20972;-77
2023/12/01 12:54:38;;;;;;;26.13;13.53;;;;;;;;;;5070453;28;20753;-79
2023/12/01 12:57:06;;;;;;;29.27;13.63;;;;;;;;;;5074028;28;20446;-79
2023/12/01 12:59:34;;;;;;;22.90;13.37;;;;;;;;;;5091142;28;20516;-78
2023/12/01 13:02:04;;;;;;;22.67;13.67;;;;;;;;;;5084875;28;20478;-78
2023/12/01 13:04:32;;;;;;;26.00;14.63;;;;;;;;;;5074252;28;20462;-80
2023/12/01 13:07:02;;;;;;;25.37;13.37;;;;;;;;;;5080524;28;20450;-81
2023/12/01 13:09:42;;;;;;;;;;;;;;;;;;;;;
2023/12/01 13:12:11;;;;;;;33.43;15.87;;;;;;;;;;5063549;28;20589;-79
2023/12/01 13:14:39;;;;;;;28.97;15.27;;;;;;;;;;5068310;28;20442;-79
2023/12/01 13:17:09;;;;;;;24.53;14.10;;;;;;;;;;5067203;28;20514;-78
2023/12/01 13:19:36;;;;;;;26.23;13.73;;;;;;;;;;5069211;28;20454;-79
2023/12/01 13:22:04;;;;;;;29.13;14.47;;;;;;;;;;5079578;28;20489;-78
2023/12/01 13:24:33;;;;;;;26.50;13.33;;;;;;;;;;5073551;28;20457;-78
2023/12/01 13:27:10;;;;;;;39.73;13.83;;;;;;;;;;5082890;28;20481;-79
2023/12/01 13:29:38;;;;;;;29.00;14.30;;;;;;;;;;5078584;28;20462;-77
2023/12/01 13:32:08;;;;;;;25.90;14.20;;;;;;;;;;5080508;28;20489;-77
2023/12/01 13:34:36;;;;;;;24.63;13.10;;;;;;;;;;5080242;28;20450;-78
2023/12/01 13:37:04;;;;;;;28.63;16.10;;;;;;;;;;5080558;28;20450;-77
2023/12/01 13:39:33;;;;;;;24.43;13.07;;;;;;;;;;5093419;28;20488;-78
2023/12/01 13:42:05;;;;;;;26.97;13.60;;;;;;;;;;5076512;28;20498;-79
2023/12/01 13:44:32;;;;;;;26.03;15.03;;;;;;;;;;5057418;28;20866;-77
2023/12/01 13:47:01;;;;;;;23.57;12.87;;;;;;;;;;5056901;28;20455;-79
2023/12/01 13:49:31;;;;;;;25.00;13.77;;;;;;;;;;5075290;28;20534;-78
2023/12/01 13:52:01;;;;;;;24.67;14.57;;;;;;;;;;5079586;28;20553;-79
2023/12/01 13:54:30;;;;;;;25.50;13.37;;;;;;;;;;5076264;28;20469;-78
2023/12/01 13:57:00;;;;;;;26.07;14.37;;;;;;;;;;5075896;28;20457;-80
2023/12/01 13:59:39;;;;;;;25.70;14.00;;;;;;;;;;5080666;28;20462;-78
2023/12/01 14:02:09;;;;;;;25.47;13.73;;;;;;;;;;5076249;28;20523;-78
2023/12/01 14:04:38;;;;;;;24.83;14.27;;;;;;;;;;5081804;28;20473;-79
2023/12/01 14:07:08;;;;;;;24.70;14.20;;;;;;;;;;5073177;28;20454;-80
2023/12/01 14:09:36;;;;;;;23.77;12.20;;;;;;;;;;5076623;28;20461;-79
2023/12/01 14:12:05;;;;;;;24.83;13.83;;;;;;;;;;5081802;28;20724;-79
2023/12/01 14:14:34;;;;;;;32.97;15.97;;;;;;;;;;5058788;28;20477;-79
2023/12/01 14:17:03;;;;;;;24.93;13.90;;;;;;;;;;5079276;28;20450;-78
2023/12/01 14:19:31;;;;;;;24.00;12.50;;;;;;;;;;5081738;28;20446;-79
2023/12/01 14:22:00;;;;;;;28.10;15.80;;;;;;;;;;5081110;28;20446;-80
2023/12/01 14:24:28;;;;;;;23.33;14.40;;;;;;;;;;5077471;28;20527;-78
2023/12/01 14:26:56;;;;;;;26.30;14.37;;;;;;;;;;5079062;28;20442;-80
2023/12/01 14:29:27;;;;;;;24.30;16.30;;;;;;;;;;5074636;28;20483;-78
2023/12/01 14:31:55;;;;;;;27.30;15.50;;;;;;;;;;5070265;28;20518;-80
2023/12/01 14:34:23;;;;;;;27.80;13.40;;;;;;;;;;5065131;28;20880;-77
2023/12/01 14:36:51;;;;;;;26.50;14.23;;;;;;;;;;5075630;28;20470;-78
2023/12/01 14:39:22;;;;;;;27.37;13.90;;;;;;;;;;5074203;28;20470;-80
2023/12/01 14:41:49;;;;;;;22.27;13.97;;;;;;;;;;5074897;28;20477;-81
2023/12/01 14:44:18;;;;;;;25.50;14.63;;;;;;;;;;5071572;28;20454;-79
2023/12/01 14:46:50;;;;;;;33.70;16.40;;;;;;;;;;5075353;28;20453;-80
2023/12/01 14:49:17;;;;;;;33.57;17.10;;;;;;;;;;5068176;28;21216;-80
2023/12/01 14:51:46;;;;;;;28.83;17.03;;;;;;;;;;5074476;28;20489;-80
2023/12/01 14:54:13;;;;;;;33.77;19.87;;;;;;;;;;5073470;28;20505;-80
2023/12/01 14:56:43;;;;;;;29.07;16.30;;;;;;;;;;5074314;28;20465;-82
2023/12/01 14:59:18;;;;;;;27.87;15.27;;;;;;;;;;5075820;28;20452;-78
2023/12/01 15:01:49;;;;;;;25.37;13.70;;;;;;;;;;5055197;28;20536;-80
2023/12/01 15:04:17;;;;;;;25.13;14.27;;;;;;;;;;5074562;28;20460;-79
2023/12/01 15:06:45;;;;;;;24.57;14.50;;;;;;;;;;5072090;28;20441;-78
2023/12/01 15:09:14;;;;;;;28.43;13.53;;;;;;;;;;5054966;28;20734;-78
2023/12/01 15:11:45;;;;;;;24.97;14.13;;;;;;;;;;5052050;28;20442;-79
2023/12/01 15:14:13;;;;;;;24.30;14.53;;;;;;;;;;5051586;28;20489;-79
2023/12/01 15:16:40;;;;;;;29.33;15.07;;;;;;;;;;5049329;28;20454;-79
2023/12/01 15:19:08;;;;;;;24.03;15.03;;;;;;;;;;5053591;28;20450;-79
2023/12/01 15:21:37;;;;;;;26.33;13.57;;;;;;;;;;5055289;28;20738;-80
2023/12/01 15:24:04;;;;;;;24.70;12.50;;;;;;;;;;5077551;28;20504;-80
2023/12/01 15:26:35;;;;;;;22.27;11.87;;;;;;;;;;5070763;28;20531;-79
2023/12/01 15:29:18;;;;;;;29.80;14.60;;;;;;;;;;5068001;28;20453;-77
2023/12/01 15:31:47;;;;;;;26.50;13.33;;;;;;;;;;5077259;28;20477;-78
2023/12/01 15:34:15;;;;;;;26.50;12.90;;;;;;;;;;5076024;28;20515;-79
2023/12/01 15:36:43;;;;;;;25.90;13.77;;;;;;;;;;5066321;28;20973;-79
2023/12/01 15:39:11;;;;;;;32.50;13.60;;;;;;;;;;5074433;28;20464;-78
2023/12/01 15:41:43;;;;;;;33.10;14.43;;;;;;;;;;5073131;28;20473;-79
2023/12/01 15:44:12;;;;;;;20.03;9.90;;;;;;;;;;5075725;28;20877;-77
2023/12/01 15:46:40;;;;;;;27.30;15.60;;;;;;;;;;5074153;28;20761;-77
2023/12/01 15:49:08;;;;;;;23.80;12.70;;;;;;;;;;5086162;28;20499;-77
2023/12/01 15:51:39;;;;;;;23.83;13.07;;;;;;;;;;5080612;28;21348;-78
2023/12/01 15:54:10;;;;;;;24.17;12.80;;;;;;;;;;5072006;28;20493;-77
2023/12/01 15:56:38;;;;;;;25.47;14.27;;;;;;;;;;5075229;28;20440;-78
2023/12/01 15:59:08;;;;;;;24.73;10.87;;;;;;;;;;5078330;28;20536;-78
2023/12/01 16:01:39;;;;;;;24.70;12.50;;;;;;;;;;5071418;28;20462;-79